sensor_id;sensor_type;location;lat;lon;timestamp;pressure;altitude;pressure_sealevel;temperature;humidity
38558;BME280;24333;42.626;23.308;2022-12-18T07:01:01;93281.53;;;2.82;100.00
38558;BME280;24333;42.626;23.308;2022-12-18T12:26:48;93388.81;;;3.08;100.00
38558;BME280;24333;42.626;23.308;2022-12-18T13:15:47;93464.44;;;3.44;100.00
38558;BME280;24333;42.626;23.308;2022-12-18T13:18:23;93474.13;;;3.45;100.00
38558;BME280;24333;42.626;23.308;2022-12-18T13:20:50;93471.22;;;3.56;100.00
38558;BME280;24333;42.626;23.308;2022-12-18T13:23:43;93441.25;;;3.15;100.00
38558;BME280;24333;42.626;23.308;2022-12-18T13:34:26;93478.66;;;3.17;100.00
38558;BME280;24333;42.626;23.308;2022-12-18T13:36:54;93455.59;;;3.11;100.00
38558;BME280;24333;42.626;23.308;2022-12-18T14:05:26;93469.31;;;3.14;100.00
38558;BME280;24333;42.626;23.308;2022-12-18T14:07:53;93475.91;;;3.22;100.00
38558;BME280;24333;42.626;23.308;2022-12-18T14:13:04;93472.41;;;3.22;100.00
38558;BME280;24333;42.626;23.308;2022-12-18T14:28:32;93531.22;;;3.20;100.00
38558;BME280;24333;42.626;23.308;2022-12-18T14:31:03;93498.91;;;3.00;100.00
38558;BME280;24333;42.626;23.308;2022-12-18T14:33:31;93485.72;;;2.99;100.00
38558;BME280;24333;42.626;23.308;2022-12-18T14:36:02;93527.53;;;3.29;100.00
38558;BME280;24333;42.626;23.308;2022-12-18T14:38:40;93527.03;;;3.27;100.00
38558;BME280;24333;42.626;23.308;2022-12-18T14:41:10;93502.94;;;3.17;100.00
38558;BME280;24333;42.626;23.308;2022-12-18T14:43:39;93499.56;;;3.11;100.00
38558;BME280;24333;42.626;23.308;2022-12-18T14:49:00;93484.84;;;3.03;100.00
38558;BME280;24333;42.626;23.308;2022-12-18T14:51:30;93534.63;;;3.25;100.00
38558;BME280;24333;42.626;23.308;2022-12-18T14:54:03;93484.44;;;2.96;100.00
38558;BME280;24333;42.626;23.308;2022-12-18T14:56:41;93502.75;;;3.13;100.00
38558;BME280;24333;42.626;23.308;2022-12-18T14:59:15;93532.22;;;3.24;100.00
38558;BME280;24333;42.626;23.308;2022-12-18T15:04:39;93535.19;;;3.08;100.00
38558;BME280;24333;42.626;23.308;2022-12-18T15:07:21;93547.47;;;3.14;100.00
38558;BME280;24333;42.626;23.308;2022-12-18T15:10:12;93542.38;;;3.13;100.00
38558;BME280;24333;42.626;23.308;2022-12-18T15:12:49;93540.97;;;3.15;100.00
38558;BME280;24333;42.626;23.308;2022-12-18T15:20:52;93545.47;;;3.06;100.00
38558;BME280;24333;42.626;23.308;2022-12-18T15:23:36;93495.72;;;2.65;100.00
38558;BME280;24333;42.626;23.308;2022-12-18T15:26:07;93547.59;;;2.90;100.00
38558;BME280;24333;42.626;23.308;2022-12-18T15:28:52;93564.81;;;2.75;100.00
38558;BME280;24333;42.626;23.308;2022-12-18T15:31:31;93561.69;;;2.68;100.00
38558;BME280;24333;42.626;23.308;2022-12-18T15:34:22;93570.78;;;2.72;100.00
38558;BME280;24333;42.626;23.308;2022-12-18T15:36:50;93564.50;;;2.57;100.00
38558;BME280;24333;42.626;23.308;2022-12-18T15:39:16;93538.91;;;2.41;100.00
38558;BME280;24333;42.626;23.308;2022-12-18T15:41:45;93558.16;;;2.29;100.00
38558;BME280;24333;42.626;23.308;2022-12-18T15:44:30;93537.63;;;2.14;100.00
38558;BME280;24333;42.626;23.308;2022-12-18T15:46:56;93546.06;;;2.07;100.00
38558;BME280;24333;42.626;23.308;2022-12-18T15:49:22;93579.63;;;2.34;100.00
38558;BME280;24333;42.626;23.308;2022-12-18T15:51:59;93572.78;;;2.23;100.00
38558;BME280;24333;42.626;23.308;2022-12-18T15:54:29;93566.91;;;2.21;100.00
38558;BME280;24333;42.626;23.308;2022-12-18T15:57:14;93594.94;;;2.39;100.00
38558;BME280;24333;42.626;23.308;2022-12-18T15:59:48;93545.19;;;2.12;100.00
38558;BME280;24333;42.626;23.308;2022-12-18T16:02:17;93559.53;;;2.26;100.00
38558;BME280;24333;42.626;23.308;2022-12-18T16:04:43;93571.41;;;2.25;100.00
38558;BME280;24333;42.626;23.308;2022-12-18T16:07:12;93575.91;;;2.30;100.00
38558;BME280;24333;42.626;23.308;2022-12-18T16:09:40;93552.56;;;2.25;100.00
38558;BME280;24333;42.626;23.308;2022-12-18T16:12:09;93569.34;;;2.17;100.00
38558;BME280;24333;42.626;23.308;2022-12-18T16:14:39;93584.50;;;2.32;100.00
38558;BME280;24333;42.626;23.308;2022-12-18T16:17:09;93614.50;;;2.44;100.00
38558;BME280;24333;42.626;23.308;2022-12-18T16:19:36;93603.41;;;2.27;100.00
38558;BME280;24333;42.626;23.308;2022-12-18T16:22:05;93567.78;;;1.92;100.00
38558;BME280;24333;42.626;23.308;2022-12-18T16:24:33;93602.28;;;2.09;100.00
38558;BME280;24333;42.626;23.308;2022-12-18T16:27:01;93602.19;;;1.95;100.00
38558;BME280;24333;42.626;23.308;2022-12-18T16:29:42;93614.94;;;2.08;100.00
38558;BME280;24333;42.626;23.308;2022-12-18T16:32:12;93562.56;;;1.76;100.00
38558;BME280;24333;42.626;23.308;2022-12-18T16:34:39;93597.25;;;2.02;100.00
38558;BME280;24333;42.626;23.308;2022-12-18T16:37:24;93626.91;;;1.97;100.00
38558;BME280;24333;42.626;23.308;2022-12-18T16:39:52;93615.63;;;1.95;100.00
38558;BME280;24333;42.626;23.308;2022-12-18T16:42:20;93598.00;;;1.83;100.00
38558;BME280;24333;42.626;23.308;2022-12-18T16:44:49;93607.91;;;1.88;100.00
38558;BME280;24333;42.626;23.308;2022-12-18T16:47:18;93608.38;;;1.95;100.00
38558;BME280;24333;42.626;23.308;2022-12-18T16:49:46;93589.38;;;1.86;100.00
38558;BME280;24333;42.626;23.308;2022-12-18T16:52:24;93596.47;;;1.77;100.00
38558;BME280;24333;42.626;23.308;2022-12-18T16:54:55;93616.59;;;1.80;100.00
38558;BME280;24333;42.626;23.308;2022-12-18T16:57:30;93614.22;;;1.78;100.00
38558;BME280;24333;42.626;23.308;2022-12-18T17:00:09;93646.84;;;1.96;100.00
38558;BME280;24333;42.626;23.308;2022-12-18T17:02:38;93662.19;;;1.95;100.00
38558;BME280;24333;42.626;23.308;2022-12-18T17:05:09;93659.53;;;1.90;100.00
38558;BME280;24333;42.626;23.308;2022-12-18T17:07:35;93616.34;;;1.52;100.00
38558;BME280;24333;42.626;23.308;2022-12-18T17:10:16;93651.06;;;1.78;100.00
38558;BME280;24333;42.626;23.308;2022-12-18T17:12:43;93652.75;;;1.68;100.00
38558;BME280;24333;42.626;23.308;2022-12-18T17:15:11;93666.84;;;1.60;100.00
38558;BME280;24333;42.626;23.308;2022-12-18T17:17:37;93634.28;;;1.32;100.00
38558;BME280;24333;42.626;23.308;2022-12-18T17:20:06;93694.97;;;1.68;98.29
38558;BME280;24333;42.626;23.308;2022-12-18T17:22:32;93629.22;;;1.25;96.26
38558;BME280;24333;42.626;23.308;2022-12-18T17:33:24;93656.19;;;1.15;95.69
38558;BME280;24333;42.626;23.308;2022-12-18T17:35:50;93680.47;;;1.34;94.75
38558;BME280;24333;42.626;23.308;2022-12-18T17:38:16;93695.72;;;1.44;94.47
38558;BME280;24333;42.626;23.308;2022-12-18T17:40:45;93660.69;;;1.25;95.65
38558;BME280;24333;42.626;23.308;2022-12-18T17:43:10;93648.31;;;1.24;98.04
38558;BME280;24333;42.626;23.308;2022-12-18T17:45:39;93645.66;;;1.19;97.79
38558;BME280;24333;42.626;23.308;2022-12-18T17:48:05;93659.69;;;1.45;99.28
38558;BME280;24333;42.626;23.308;2022-12-18T17:50:35;93638.59;;;1.28;98.99
38558;BME280;24333;42.626;23.308;2022-12-18T17:53:01;93654.66;;;1.38;98.64
38558;BME280;24333;42.626;23.308;2022-12-18T17:55:27;93656.34;;;1.29;97.70
38558;BME280;24333;42.626;23.308;2022-12-18T17:57:54;93654.66;;;1.38;98.60
38558;BME280;24333;42.626;23.308;2022-12-18T18:00:23;93687.25;;;1.61;97.30
38558;BME280;24333;42.626;23.308;2022-12-18T18:02:48;93645.28;;;1.30;97.81
38558;BME280;24333;42.626;23.308;2022-12-18T18:05:14;93673.56;;;1.57;99.86
38558;BME280;24333;42.626;23.308;2022-12-18T18:07:40;93686.66;;;1.69;98.55
38558;BME280;24333;42.626;23.308;2022-12-18T18:10:06;93644.72;;;1.34;97.49
38558;BME280;24333;42.626;23.308;2022-12-18T18:12:32;93644.16;;;1.37;96.35
38558;BME280;24333;42.626;23.308;2022-12-18T18:15:17;93681.91;;;1.56;92.63
38558;BME280;24333;42.626;23.308;2022-12-18T18:17:42;93694.25;;;1.57;94.73
38558;BME280;24333;42.626;23.308;2022-12-18T18:20:08;93666.91;;;1.50;92.17
38558;BME280;24333;42.626;23.308;2022-12-18T18:22:34;93699.84;;;1.66;90.57
38558;BME280;24333;42.626;23.308;2022-12-18T18:32:59;93678.53;;;1.45;90.10
38558;BME280;24333;42.626;23.308;2022-12-18T18:35:24;93661.31;;;1.41;88.59
38558;BME280;24333;42.626;23.308;2022-12-18T18:43:00;93695.34;;;1.56;89.33
38558;BME280;24333;42.626;23.308;2022-12-18T18:45:26;93694.88;;;1.49;93.08
38558;BME280;24333;42.626;23.308;2022-12-18T18:47:52;93679.66;;;1.34;93.47
38558;BME280;24333;42.626;23.308;2022-12-18T18:50:17;93695.97;;;1.48;96.15
38558;BME280;24333;42.626;23.308;2022-12-18T18:52:43;93691.16;;;1.44;98.73
38558;BME280;24333;42.626;23.308;2022-12-18T18:55:09;93710.22;;;1.48;100.00
38558;BME280;24333;42.626;23.308;2022-12-18T18:57:35;93704.06;;;1.42;100.00
38558;BME280;24333;42.626;23.308;2022-12-18T19:00:00;93731.38;;;1.60;99.18
38558;BME280;24333;42.626;23.308;2022-12-18T19:02:26;93700.59;;;1.37;100.00
